JZR7KA OKKK-OSAP
Flight info
| Callsign | JZR7KA |
|---|---|
| Flight time | 2h 0m |
| Altitude | 36000 |
| Route | RALKA G795 TASMI L602 GADSI M703 PASIP DCT TAN |
| Aircraft | A320/M-SDE3FGHIRWY/LB1 |
Departure
| Time | 2026-05-08 18:39 |
|---|---|
| Airport | Kuwait International Airport (OKKK) |
Arrival
| Time | 2026-05-08 20:39 |
|---|---|
| Airport | Aleppo International Airport (OSAP) |
| Time | Latitude | Longitude | Altitude | Speed | Heading |
|---|---|---|---|---|---|
| 2026-05-08 18:11 | 29.23663 | 47.96961 | 167 ft | 0 kts | 155° |
| 2026-05-08 18:28 | 29.23668 | 47.96958 | 167 ft | 4 kts | 155° |
| 2026-05-08 18:28 | 29.23687 | 47.96948 | 167 ft | 4 kts | 153° |
| 2026-05-08 18:28 | 29.23711 | 47.96933 | 167 ft | 4 kts | 147° |
| 2026-05-08 18:29 | 29.23734 | 47.96916 | 167 ft | 4 kts | 146° |
| 2026-05-08 18:29 | 29.23757 | 47.96902 | 167 ft | 4 kts | 172° |
| 2026-05-08 18:29 | 29.23767 | 47.96901 | 167 ft | 0 kts | 192° |
| 2026-05-08 18:31 | 29.23761 | 47.96899 | 167 ft | 1 kts | 195° |
| 2026-05-08 18:31 | 29.23727 | 47.96861 | 167 ft | 12 kts | 236° |
| 2026-05-08 18:32 | 29.23696 | 47.96785 | 167 ft | 10 kts | 245° |
| 2026-05-08 18:32 | 29.23671 | 47.96723 | 167 ft | 8 kts | 245° |
| 2026-05-08 18:32 | 29.23652 | 47.96676 | 168 ft | 5 kts | 245° |
| 2026-05-08 18:32 | 29.23629 | 47.96646 | 169 ft | 6 kts | 207° |
| 2026-05-08 18:33 | 29.23583 | 47.96650 | 172 ft | 10 kts | 162° |
| 2026-05-08 18:33 | 29.23487 | 47.96699 | 175 ft | 20 kts | 156° |
| 2026-05-08 18:33 | 29.23334 | 47.96779 | 179 ft | 29 kts | 157° |
| 2026-05-08 18:33 | 29.23137 | 47.96888 | 174 ft | 34 kts | 153° |
| 2026-05-08 18:34 | 29.22922 | 47.97000 | 169 ft | 31 kts | 155° |
| 2026-05-08 18:34 | 29.22742 | 47.97095 | 169 ft | 28 kts | 155° |
| 2026-05-08 18:34 | 29.22564 | 47.97191 | 169 ft | 29 kts | 155° |
| 2026-05-08 18:34 | 29.22381 | 47.97288 | 169 ft | 29 kts | 155° |
| 2026-05-08 18:35 | 29.22212 | 47.97378 | 169 ft | 28 kts | 155° |
| 2026-05-08 18:35 | 29.22041 | 47.97468 | 168 ft | 26 kts | 155° |
| 2026-05-08 18:35 | 29.21875 | 47.97558 | 168 ft | 27 kts | 154° |
| 2026-05-08 18:35 | 29.21697 | 47.97652 | 169 ft | 29 kts | 155° |
| 2026-05-08 18:36 | 29.21516 | 47.97748 | 170 ft | 28 kts | 154° |
| 2026-05-08 18:36 | 29.21366 | 47.97829 | 172 ft | 17 kts | 155° |
| 2026-05-08 18:36 | 29.21264 | 47.97831 | 171 ft | 15 kts | 230° |
| 2026-05-08 18:36 | 29.21256 | 47.97726 | 174 ft | 14 kts | 296° |
| 2026-05-08 18:37 | 29.21304 | 47.97639 | 181 ft | 11 kts | 303° |
| 2026-05-08 18:37 | 29.21362 | 47.97581 | 181 ft | 5 kts | 335° |
| 2026-05-08 18:37 | 29.21363 | 47.97581 | 181 ft | 1 kts | 335° |
| 2026-05-08 18:38 | 29.21468 | 47.97526 | 181 ft | 47 kts | 335° |
| 2026-05-08 18:38 | 29.21965 | 47.97261 | 183 ft | 108 kts | 335° |
| 2026-05-08 18:38 | 29.22814 | 47.96809 | 183 ft | 158 kts | 335° |
| 2026-05-08 18:38 | 29.23869 | 47.96245 | 627 ft | 165 kts | 337° |
| 2026-05-08 18:39 | 29.24922 | 47.95688 | 1242 ft | 167 kts | 336° |
| 2026-05-08 18:39 | 29.25996 | 47.95125 | 1683 ft | 180 kts | 336° |
| 2026-05-08 18:39 | 29.27199 | 47.94496 | 1987 ft | 199 kts | 336° |
| 2026-05-08 18:39 | 29.28514 | 47.93799 | 2300 ft | 217 kts | 335° |
| 2026-05-08 18:40 | 29.29956 | 47.93028 | 2592 ft | 240 kts | 335° |
| 2026-05-08 18:40 | 29.31530 | 47.92179 | 3050 ft | 256 kts | 335° |
| 2026-05-08 18:40 | 29.33151 | 47.91333 | 3782 ft | 261 kts | 340° |
| 2026-05-08 18:40 | 29.34958 | 47.91070 | 4471 ft | 268 kts | 7° |
| 2026-05-08 18:41 | 29.36715 | 47.91826 | 5132 ft | 277 kts | 36° |
| 2026-05-08 18:41 | 29.37991 | 47.93492 | 5815 ft | 284 kts | 60° |
| 2026-05-08 18:41 | 29.38948 | 47.95507 | 6535 ft | 289 kts | 62° |
| 2026-05-08 18:41 | 29.39900 | 47.97561 | 7243 ft | 293 kts | 62° |
| 2026-05-08 18:42 | 29.40863 | 47.99640 | 7973 ft | 297 kts | 61° |
| 2026-05-08 18:42 | 29.41842 | 48.01747 | 8700 ft | 300 kts | 61° |
| 2026-05-08 18:42 | 29.42823 | 48.03850 | 9379 ft | 305 kts | 61° |
| 2026-05-08 18:42 | 29.43833 | 48.06015 | 10061 ft | 310 kts | 61° |
| 2026-05-08 18:43 | 29.44878 | 48.08249 | 10376 ft | 329 kts | 61° |
| 2026-05-08 18:43 | 29.46001 | 48.10643 | 10525 ft | 351 kts | 61° |
| 2026-05-08 18:43 | 29.47191 | 48.13179 | 10793 ft | 368 kts | 61° |
| 2026-05-08 18:43 | 29.48410 | 48.15786 | 11367 ft | 373 kts | 61° |
| 2026-05-08 18:44 | 29.49795 | 48.18321 | 11985 ft | 376 kts | 48° |
| 2026-05-08 18:44 | 29.51794 | 48.20243 | 12609 ft | 376 kts | 27° |
| 2026-05-08 18:44 | 29.54207 | 48.21255 | 13236 ft | 374 kts | 7° |
| 2026-05-08 18:44 | 29.56803 | 48.21262 | 13862 ft | 372 kts | 347° |
| 2026-05-08 18:45 | 29.59227 | 48.20275 | 14439 ft | 370 kts | 329° |
| 2026-05-08 18:45 | 29.61478 | 48.18810 | 15044 ft | 372 kts | 327° |
| 2026-05-08 18:45 | 29.63737 | 48.17320 | 15650 ft | 374 kts | 327° |
| 2026-05-08 18:45 | 29.66003 | 48.15822 | 16254 ft | 377 kts | 327° |
| 2026-05-08 18:46 | 29.68289 | 48.14308 | 16845 ft | 380 kts | 327° |
| 2026-05-08 18:46 | 29.70561 | 48.12800 | 17432 ft | 382 kts | 327° |
| 2026-05-08 18:46 | 29.72880 | 48.11266 | 18040 ft | 385 kts | 327° |
| 2026-05-08 18:46 | 29.75219 | 48.09722 | 18527 ft | 389 kts | 327° |
| 2026-05-08 18:47 | 29.77579 | 48.08162 | 19008 ft | 393 kts | 326° |
| 2026-05-08 18:47 | 29.79938 | 48.06599 | 19487 ft | 396 kts | 326° |
| 2026-05-08 18:47 | 29.82341 | 48.05002 | 19979 ft | 399 kts | 326° |
| 2026-05-08 18:47 | 29.84759 | 48.03392 | 20448 ft | 403 kts | 326° |
| 2026-05-08 18:48 | 29.86370 | 48.02320 | 20759 ft | 405 kts | 325° |
| 2026-05-08 18:48 | 29.88828 | 48.00691 | 21212 ft | 409 kts | 325° |
| 2026-05-08 18:48 | 29.91317 | 47.99046 | 21708 ft | 412 kts | 325° |
| 2026-05-08 18:48 | 29.93808 | 47.97396 | 22157 ft | 414 kts | 324° |
| 2026-05-08 18:49 | 29.96315 | 47.95732 | 22599 ft | 418 kts | 324° |
| 2026-05-08 18:49 | 29.98846 | 47.94046 | 23014 ft | 421 kts | 324° |
| 2026-05-08 18:49 | 30.01321 | 47.92249 | 23418 ft | 419 kts | 317° |
| 2026-05-08 18:49 | 30.03502 | 47.90059 | 23769 ft | 415 kts | 308° |
| 2026-05-08 18:50 | 30.05415 | 47.87564 | 24107 ft | 415 kts | 304° |
| 2026-05-08 18:50 | 30.07307 | 47.85031 | 24433 ft | 417 kts | 304° |
| 2026-05-08 18:50 | 30.09212 | 47.82486 | 24737 ft | 420 kts | 304° |
| 2026-05-08 18:50 | 30.11115 | 47.79951 | 25024 ft | 424 kts | 304° |
| 2026-05-08 18:51 | 30.13056 | 47.77365 | 25325 ft | 427 kts | 304° |
| 2026-05-08 18:51 | 30.15016 | 47.74756 | 25622 ft | 430 kts | 303° |
| 2026-05-08 18:51 | 30.16979 | 47.72136 | 25897 ft | 433 kts | 303° |
| 2026-05-08 18:51 | 30.18960 | 47.69486 | 26186 ft | 436 kts | 303° |
| 2026-05-08 18:52 | 30.20948 | 47.66822 | 26489 ft | 438 kts | 303° |
| 2026-05-08 18:52 | 30.22919 | 47.64178 | 26771 ft | 441 kts | 302° |
| 2026-05-08 18:52 | 30.24924 | 47.61484 | 27037 ft | 443 kts | 302° |
| 2026-05-08 18:52 | 30.26946 | 47.58763 | 27291 ft | 447 kts | 302° |
| 2026-05-08 18:53 | 30.28980 | 47.56028 | 27540 ft | 450 kts | 302° |
| 2026-05-08 18:53 | 30.31034 | 47.53272 | 27788 ft | 453 kts | 302° |
| 2026-05-08 18:53 | 30.33099 | 47.50507 | 28049 ft | 455 kts | 302° |
| 2026-05-08 18:53 | 30.35178 | 47.47723 | 28294 ft | 457 kts | 302° |
| 2026-05-08 18:54 | 30.37264 | 47.44922 | 28541 ft | 459 kts | 302° |
| 2026-05-08 18:54 | 30.39333 | 47.42136 | 28764 ft | 462 kts | 302° |
| 2026-05-08 18:54 | 30.41431 | 47.39302 | 28989 ft | 464 kts | 302° |
| 2026-05-08 18:54 | 30.43539 | 47.36453 | 29182 ft | 467 kts | 302° |
| 2026-05-08 18:55 | 30.47779 | 47.30723 | 29580 ft | 471 kts | 303° |
| 2026-05-08 18:55 | 30.49920 | 47.27834 | 29892 ft | 471 kts | 302° |
| 2026-05-08 18:55 | 30.52054 | 47.24951 | 30185 ft | 470 kts | 302° |
| 2026-05-08 18:56 | 30.54187 | 47.22065 | 30449 ft | 469 kts | 302° |
| 2026-05-08 18:56 | 30.56119 | 47.19066 | 30710 ft | 459 kts | 293° |
| 2026-05-08 18:56 | 30.57620 | 47.15851 | 30983 ft | 448 kts | 285° |
| 2026-05-08 18:56 | 30.58794 | 47.12522 | 31258 ft | 444 kts | 283° |
| 2026-05-08 18:57 | 30.59942 | 47.09205 | 31546 ft | 443 kts | 283° |
| 2026-05-08 18:57 | 30.60702 | 47.07012 | 31743 ft | 442 kts | 283° |
| 2026-05-08 18:57 | 30.62235 | 47.02596 | 32139 ft | 439 kts | 283° |
| 2026-05-08 18:57 | 30.63377 | 46.99303 | 32438 ft | 438 kts | 282° |
| 2026-05-08 18:58 | 30.64511 | 46.96028 | 32738 ft | 436 kts | 282° |
| 2026-05-08 18:58 | 30.65641 | 46.92768 | 33034 ft | 435 kts | 282° |
| 2026-05-08 18:58 | 30.66756 | 46.89549 | 33324 ft | 433 kts | 282° |
| 2026-05-08 18:58 | 30.67880 | 46.86302 | 33625 ft | 432 kts | 282° |
| 2026-05-08 18:59 | 30.68999 | 46.83061 | 33944 ft | 430 kts | 281° |
| 2026-05-08 18:59 | 30.70109 | 46.79833 | 34206 ft | 428 kts | 281° |
| 2026-05-08 18:59 | 30.71210 | 46.76626 | 34463 ft | 426 kts | 281° |
| 2026-05-08 18:59 | 30.72297 | 46.73455 | 34717 ft | 425 kts | 281° |
| 2026-05-08 19:00 | 30.73389 | 46.70271 | 34962 ft | 423 kts | 281° |
| 2026-05-08 19:00 | 30.74481 | 46.67086 | 35199 ft | 421 kts | 281° |
| 2026-05-08 19:00 | 30.75567 | 46.63920 | 35427 ft | 420 kts | 281° |
| 2026-05-08 19:00 | 30.76635 | 46.60810 | 35645 ft | 419 kts | 281° |
| 2026-05-08 19:01 | 30.77713 | 46.57669 | 35881 ft | 417 kts | 280° |
| 2026-05-08 19:01 | 30.78788 | 46.54528 | 35984 ft | 417 kts | 280° |
| 2026-05-08 19:01 | 30.79862 | 46.51380 | 36002 ft | 417 kts | 280° |
| 2026-05-08 19:02 | 30.81987 | 46.45139 | 36002 ft | 417 kts | 280° |
| 2026-05-08 19:02 | 30.84126 | 46.38851 | 36005 ft | 417 kts | 280° |
| 2026-05-08 19:03 | 30.86262 | 46.32571 | 36005 ft | 417 kts | 280° |
| 2026-05-08 19:03 | 30.88379 | 46.26320 | 36014 ft | 417 kts | 280° |
| 2026-05-08 19:04 | 30.90512 | 46.20021 | 36015 ft | 417 kts | 280° |
| 2026-05-08 19:04 | 30.92638 | 46.13733 | 36016 ft | 417 kts | 280° |
| 2026-05-08 19:05 | 30.94750 | 46.07471 | 36023 ft | 417 kts | 280° |
| 2026-05-08 19:05 | 30.96884 | 46.01159 | 36042 ft | 418 kts | 280° |
| 2026-05-08 19:06 | 30.98995 | 45.94886 | 36035 ft | 417 kts | 280° |
| 2026-05-08 19:06 | 31.01115 | 45.88568 | 36031 ft | 417 kts | 280° |
| 2026-05-08 19:07 | 31.03224 | 45.82255 | 36029 ft | 417 kts | 280° |
| 2026-05-08 19:07 | 31.05311 | 45.75993 | 36058 ft | 417 kts | 280° |
| 2026-05-08 19:08 | 31.07411 | 45.69668 | 36047 ft | 417 kts | 280° |
| 2026-05-08 19:08 | 31.09509 | 45.63376 | 36042 ft | 417 kts | 280° |
| 2026-05-08 19:09 | 31.11611 | 45.57055 | 36046 ft | 417 kts | 280° |
| 2026-05-08 19:09 | 31.13708 | 45.50718 | 36045 ft | 418 kts | 280° |
| 2026-05-08 19:10 | 31.15791 | 45.44428 | 36048 ft | 418 kts | 280° |
| 2026-05-08 19:10 | 31.17889 | 45.38091 | 36059 ft | 418 kts | 280° |
| 2026-05-08 19:11 | 31.19987 | 45.31741 | 36044 ft | 418 kts | 280° |
| 2026-05-08 19:11 | 31.22075 | 45.25390 | 36065 ft | 419 kts | 280° |
| 2026-05-08 19:12 | 31.24151 | 45.19064 | 36054 ft | 419 kts | 280° |
| 2026-05-08 19:12 | 31.26230 | 45.12729 | 36041 ft | 419 kts | 280° |
| 2026-05-08 19:13 | 31.28311 | 45.06350 | 36037 ft | 420 kts | 280° |
| 2026-05-08 19:13 | 31.30398 | 44.99946 | 36041 ft | 421 kts | 281° |
| 2026-05-08 19:14 | 31.32482 | 44.93568 | 36030 ft | 422 kts | 282° |
| 2026-05-08 19:14 | 31.34577 | 44.87132 | 36020 ft | 423 kts | 282° |
| 2026-05-08 19:15 | 31.36671 | 44.80679 | 36025 ft | 424 kts | 282° |
| 2026-05-08 19:15 | 31.38754 | 44.74254 | 36024 ft | 424 kts | 282° |
| 2026-05-08 19:16 | 31.40844 | 44.67780 | 36028 ft | 424 kts | 282° |
| 2026-05-08 19:16 | 31.42933 | 44.61308 | 36047 ft | 424 kts | 282° |
| 2026-05-08 19:17 | 31.45007 | 44.54865 | 36032 ft | 426 kts | 283° |
| 2026-05-08 19:17 | 31.47105 | 44.48357 | 36029 ft | 427 kts | 283° |
| 2026-05-08 19:18 | 31.49193 | 44.41844 | 36045 ft | 427 kts | 283° |
| 2026-05-08 19:18 | 31.51264 | 44.35352 | 36038 ft | 428 kts | 284° |
| 2026-05-08 19:19 | 31.53360 | 44.28786 | 36040 ft | 429 kts | 284° |
| 2026-05-08 19:19 | 31.55456 | 44.22236 | 36059 ft | 429 kts | 284° |
| 2026-05-08 19:20 | 31.57533 | 44.15710 | 36055 ft | 429 kts | 284° |
| 2026-05-08 19:20 | 31.59616 | 44.09130 | 36054 ft | 430 kts | 284° |
| 2026-05-08 19:21 | 31.61684 | 44.02575 | 36071 ft | 430 kts | 284° |
| 2026-05-08 19:21 | 31.63767 | 43.95974 | 36063 ft | 430 kts | 285° |
| 2026-05-08 19:22 | 31.65859 | 43.89369 | 36068 ft | 431 kts | 285° |
| 2026-05-08 19:22 | 31.67927 | 43.82815 | 36073 ft | 431 kts | 285° |
| 2026-05-08 19:23 | 31.70012 | 43.76191 | 36059 ft | 431 kts | 285° |
| 2026-05-08 19:23 | 31.72080 | 43.69601 | 36057 ft | 432 kts | 285° |
| 2026-05-08 19:24 | 31.74155 | 43.62974 | 36066 ft | 432 kts | 285° |
| 2026-05-08 19:24 | 31.76217 | 43.56371 | 36064 ft | 433 kts | 285° |
| 2026-05-08 19:25 | 31.78284 | 43.49714 | 36064 ft | 433 kts | 285° |
| 2026-05-08 19:25 | 31.80356 | 43.43047 | 36073 ft | 433 kts | 286° |
| 2026-05-08 19:26 | 31.82417 | 43.36415 | 36074 ft | 434 kts | 286° |
| 2026-05-08 19:26 | 31.84487 | 43.29733 | 36071 ft | 434 kts | 286° |
| 2026-05-08 19:27 | 31.86549 | 43.23053 | 36069 ft | 434 kts | 286° |
| 2026-05-08 19:27 | 31.88597 | 43.16395 | 36083 ft | 434 kts | 286° |
| 2026-05-08 19:28 | 31.90656 | 43.09701 | 36082 ft | 434 kts | 286° |
| 2026-05-08 19:28 | 31.92710 | 43.02994 | 36085 ft | 434 kts | 286° |
| 2026-05-08 19:29 | 31.94744 | 42.96329 | 36094 ft | 434 kts | 286° |
| 2026-05-08 19:29 | 31.96788 | 42.89623 | 36093 ft | 434 kts | 286° |
| 2026-05-08 19:30 | 31.98822 | 42.82974 | 36098 ft | 434 kts | 286° |
| 2026-05-08 19:30 | 32.00862 | 42.76283 | 36094 ft | 433 kts | 286° |
| 2026-05-08 19:31 | 32.02894 | 42.69581 | 36094 ft | 433 kts | 286° |
| 2026-05-08 19:31 | 32.04900 | 42.62931 | 36093 ft | 433 kts | 286° |
| 2026-05-08 19:32 | 32.06929 | 42.56225 | 36098 ft | 433 kts | 286° |
| 2026-05-08 19:32 | 32.08939 | 42.49571 | 36094 ft | 432 kts | 286° |
| 2026-05-08 19:33 | 32.10945 | 42.42881 | 36093 ft | 431 kts | 286° |
| 2026-05-08 19:33 | 32.12935 | 42.36238 | 36098 ft | 431 kts | 286° |
| 2026-05-08 19:34 | 32.14598 | 42.30684 | 36095 ft | 431 kts | 286° |
| 2026-05-08 19:34 | 32.16593 | 42.24012 | 36096 ft | 431 kts | 286° |
| 2026-05-08 19:35 | 32.18579 | 42.17344 | 36095 ft | 430 kts | 287° |
| 2026-05-08 19:35 | 32.20576 | 42.10657 | 36096 ft | 430 kts | 287° |
| 2026-05-08 19:36 | 32.22543 | 42.04031 | 36091 ft | 430 kts | 286° |
| 2026-05-08 19:36 | 32.24520 | 41.97338 | 36101 ft | 430 kts | 287° |
| 2026-05-08 19:37 | 32.26492 | 41.90656 | 36099 ft | 430 kts | 287° |
| 2026-05-08 19:37 | 32.28451 | 41.84006 | 36093 ft | 430 kts | 287° |
| 2026-05-08 19:38 | 32.30423 | 41.77319 | 36101 ft | 429 kts | 287° |
| 2026-05-08 19:38 | 32.32383 | 41.70675 | 36096 ft | 429 kts | 287° |
| 2026-05-08 19:39 | 32.34328 | 41.64033 | 36093 ft | 429 kts | 287° |
| 2026-05-08 19:39 | 32.36279 | 41.57352 | 36093 ft | 429 kts | 287° |
| 2026-05-08 19:40 | 32.38232 | 41.50659 | 36100 ft | 429 kts | 288° |
| 2026-05-08 19:40 | 32.40159 | 41.44030 | 36082 ft | 428 kts | 288° |
| 2026-05-08 19:41 | 32.42090 | 41.37366 | 36088 ft | 428 kts | 288° |
| 2026-05-08 19:41 | 32.44020 | 41.30696 | 36097 ft | 427 kts | 288° |
| 2026-05-08 19:42 | 32.45952 | 41.24031 | 36101 ft | 427 kts | 288° |
| 2026-05-08 19:42 | 32.47863 | 41.17414 | 36098 ft | 426 kts | 288° |
| 2026-05-08 19:43 | 32.49777 | 41.10759 | 36098 ft | 426 kts | 288° |
| 2026-05-08 19:43 | 32.51678 | 41.04149 | 36098 ft | 425 kts | 288° |
| 2026-05-08 19:44 | 32.53580 | 40.97520 | 36098 ft | 425 kts | 288° |
| 2026-05-08 19:44 | 32.55483 | 40.90868 | 36101 ft | 424 kts | 288° |
| 2026-05-08 19:45 | 32.57362 | 40.84274 | 36101 ft | 423 kts | 289° |
| 2026-05-08 19:45 | 32.59248 | 40.77663 | 36102 ft | 423 kts | 289° |
| 2026-05-08 19:46 | 32.61126 | 40.71040 | 36100 ft | 422 kts | 289° |
| 2026-05-08 19:46 | 32.63929 | 40.61120 | 36098 ft | 422 kts | 289° |
| 2026-05-08 19:47 | 32.65783 | 40.54543 | 36093 ft | 422 kts | 289° |
| 2026-05-08 19:47 | 32.67647 | 40.47926 | 36092 ft | 421 kts | 289° |
| 2026-05-08 19:48 | 32.69501 | 40.41354 | 36096 ft | 421 kts | 289° |
| 2026-05-08 19:48 | 32.71343 | 40.34781 | 36101 ft | 420 kts | 289° |
| 2026-05-08 19:49 | 32.73191 | 40.28179 | 36100 ft | 420 kts | 289° |
| 2026-05-08 19:49 | 32.75037 | 40.21590 | 36106 ft | 419 kts | 290° |
| 2026-05-08 19:50 | 32.76866 | 40.15016 | 36111 ft | 418 kts | 290° |
| 2026-05-08 19:50 | 32.78679 | 40.08485 | 36111 ft | 417 kts | 290° |
| 2026-05-08 19:51 | 32.80502 | 40.01916 | 36110 ft | 417 kts | 291° |
| 2026-05-08 19:51 | 32.82306 | 39.95381 | 36117 ft | 415 kts | 291° |
| 2026-05-08 19:52 | 32.84096 | 39.88868 | 36117 ft | 414 kts | 291° |
| 2026-05-08 19:52 | 32.85873 | 39.82404 | 36114 ft | 412 kts | 291° |
| 2026-05-08 19:53 | 32.87665 | 39.75921 | 36118 ft | 411 kts | 292° |
| 2026-05-08 19:53 | 32.89439 | 39.69471 | 36119 ft | 409 kts | 292° |
| 2026-05-08 19:54 | 32.91200 | 39.63033 | 36115 ft | 408 kts | 292° |
| 2026-05-08 19:54 | 32.92940 | 39.56644 | 36109 ft | 408 kts | 292° |
| 2026-05-08 19:55 | 32.94686 | 39.50226 | 36100 ft | 406 kts | 292° |
| 2026-05-08 19:55 | 32.96424 | 39.43825 | 36113 ft | 405 kts | 292° |
| 2026-05-08 19:56 | 32.98156 | 39.37445 | 36110 ft | 404 kts | 292° |
| 2026-05-08 19:56 | 32.99886 | 39.31065 | 36113 ft | 404 kts | 292° |
| 2026-05-08 19:57 | 33.01593 | 39.24724 | 36103 ft | 404 kts | 292° |
| 2026-05-08 19:57 | 33.03308 | 39.18341 | 36105 ft | 403 kts | 292° |
| 2026-05-08 19:58 | 33.05022 | 39.11968 | 36099 ft | 403 kts | 293° |
| 2026-05-08 19:58 | 33.06718 | 39.05640 | 36094 ft | 403 kts | 292° |
| 2026-05-08 19:59 | 33.08422 | 38.99269 | 36093 ft | 402 kts | 294° |
| 2026-05-08 19:59 | 33.11095 | 38.93559 | 36092 ft | 391 kts | 313° |
| 2026-05-08 20:00 | 33.15264 | 38.89495 | 36085 ft | 388 kts | 329° |
| 2026-05-08 20:00 | 33.19882 | 38.86142 | 36103 ft | 388 kts | 328° |
| 2026-05-08 20:01 | 33.24463 | 38.82804 | 36100 ft | 388 kts | 328° |
| 2026-05-08 20:01 | 33.29080 | 38.79438 | 36090 ft | 388 kts | 328° |
| 2026-05-08 20:02 | 33.33668 | 38.76090 | 36093 ft | 387 kts | 328° |
| 2026-05-08 20:02 | 33.38276 | 38.72717 | 36091 ft | 388 kts | 328° |
| 2026-05-08 20:03 | 33.42878 | 38.69343 | 36091 ft | 387 kts | 328° |
| 2026-05-08 20:03 | 33.47455 | 38.65989 | 36114 ft | 387 kts | 329° |
| 2026-05-08 20:04 | 33.52358 | 38.63275 | 36103 ft | 387 kts | 335° |
| 2026-05-08 20:04 | 33.57289 | 38.60728 | 36103 ft | 387 kts | 335° |
| 2026-05-08 20:05 | 33.62250 | 38.58157 | 36109 ft | 388 kts | 335° |
| 2026-05-08 20:05 | 33.67208 | 38.55579 | 36106 ft | 388 kts | 335° |
| 2026-05-08 20:06 | 33.72165 | 38.52999 | 36102 ft | 388 kts | 335° |
| 2026-05-08 20:06 | 33.77095 | 38.50438 | 36115 ft | 388 kts | 335° |
| 2026-05-08 20:07 | 33.82066 | 38.47856 | 36117 ft | 388 kts | 335° |
| 2026-05-08 20:07 | 33.86998 | 38.45285 | 36111 ft | 388 kts | 335° |
| 2026-05-08 20:08 | 33.91960 | 38.42682 | 36105 ft | 388 kts | 335° |
| 2026-05-08 20:08 | 33.96890 | 38.40100 | 36103 ft | 388 kts | 335° |
| 2026-05-08 20:09 | 34.01843 | 38.37507 | 36102 ft | 388 kts | 335° |
| 2026-05-08 20:09 | 34.06800 | 38.34908 | 36102 ft | 388 kts | 335° |
| 2026-05-08 20:10 | 34.11758 | 38.32308 | 36102 ft | 388 kts | 335° |
| 2026-05-08 20:10 | 34.16688 | 38.29721 | 36101 ft | 388 kts | 335° |
| 2026-05-08 20:11 | 34.21639 | 38.27111 | 36104 ft | 388 kts | 335° |
| 2026-05-08 20:11 | 34.26571 | 38.24513 | 36118 ft | 388 kts | 335° |
| 2026-05-08 20:12 | 34.31525 | 38.21906 | 36111 ft | 388 kts | 335° |
| 2026-05-08 20:12 | 34.36472 | 38.19289 | 36108 ft | 388 kts | 334° |
| 2026-05-08 20:13 | 34.41421 | 38.16666 | 36104 ft | 388 kts | 334° |
| 2026-05-08 20:13 | 34.46337 | 38.14056 | 36108 ft | 387 kts | 334° |
| 2026-05-08 20:14 | 34.51284 | 38.11428 | 36133 ft | 388 kts | 334° |
| 2026-05-08 20:14 | 34.56230 | 38.08802 | 36135 ft | 387 kts | 334° |
| 2026-05-08 20:15 | 34.61144 | 38.06198 | 36130 ft | 387 kts | 334° |
| 2026-05-08 20:15 | 34.66092 | 38.03565 | 36130 ft | 387 kts | 334° |
| 2026-05-08 20:16 | 34.71038 | 38.00922 | 36130 ft | 387 kts | 334° |
| 2026-05-08 20:16 | 34.75954 | 37.98299 | 36150 ft | 387 kts | 334° |
| 2026-05-08 20:17 | 34.80891 | 37.95658 | 36145 ft | 387 kts | 334° |
| 2026-05-08 20:17 | 34.84999 | 37.93460 | 36152 ft | 387 kts | 334° |
| 2026-05-08 20:18 | 34.90748 | 37.90389 | 36152 ft | 387 kts | 334° |
| 2026-05-08 20:18 | 34.94854 | 37.88189 | 36149 ft | 387 kts | 334° |
| 2026-05-08 20:19 | 34.99794 | 37.85532 | 36162 ft | 387 kts | 334° |
| 2026-05-08 20:19 | 35.04732 | 37.82864 | 36158 ft | 387 kts | 333° |
| 2026-05-08 20:20 | 35.09637 | 37.80215 | 36120 ft | 387 kts | 334° |
| 2026-05-08 20:20 | 35.12110 | 37.78886 | 35862 ft | 387 kts | 334° |
| 2026-05-08 20:20 | 35.14574 | 37.77560 | 35618 ft | 386 kts | 334° |
| 2026-05-08 20:21 | 35.17036 | 37.76233 | 34979 ft | 386 kts | 334° |
| 2026-05-08 20:21 | 35.19494 | 37.74906 | 34256 ft | 385 kts | 334° |
| 2026-05-08 20:21 | 35.21950 | 37.73576 | 33385 ft | 386 kts | 334° |
| 2026-05-08 20:21 | 35.24376 | 37.72261 | 32556 ft | 386 kts | 334° |
| 2026-05-08 20:22 | 35.26836 | 37.70926 | 31706 ft | 388 kts | 334° |
| 2026-05-08 20:22 | 35.29309 | 37.69586 | 30888 ft | 390 kts | 334° |
| 2026-05-08 20:22 | 35.31794 | 37.68238 | 29971 ft | 393 kts | 334° |
| 2026-05-08 20:22 | 35.34291 | 37.66882 | 29362 ft | 388 kts | 334° |
| 2026-05-08 20:23 | 35.36742 | 37.65554 | 28813 ft | 382 kts | 334° |
| 2026-05-08 20:23 | 35.39165 | 37.64241 | 28247 ft | 378 kts | 334° |
| 2026-05-08 20:23 | 35.41566 | 37.62941 | 27690 ft | 375 kts | 334° |
| 2026-05-08 20:23 | 35.43951 | 37.61644 | 27136 ft | 374 kts | 334° |
| 2026-05-08 20:24 | 35.46324 | 37.60347 | 26593 ft | 373 kts | 334° |
| 2026-05-08 20:24 | 35.48695 | 37.59055 | 26048 ft | 372 kts | 334° |
| 2026-05-08 20:24 | 35.51067 | 37.57766 | 25509 ft | 372 kts | 334° |
| 2026-05-08 20:24 | 35.53405 | 37.56491 | 24967 ft | 372 kts | 334° |
| 2026-05-08 20:25 | 35.55776 | 37.55197 | 24423 ft | 372 kts | 334° |
| 2026-05-08 20:25 | 35.58144 | 37.53905 | 23869 ft | 374 kts | 334° |
| 2026-05-08 20:25 | 35.60593 | 37.52564 | 23148 ft | 391 kts | 334° |
| 2026-05-08 20:25 | 35.63092 | 37.51196 | 22497 ft | 393 kts | 334° |
| 2026-05-08 20:26 | 35.65589 | 37.49828 | 21860 ft | 392 kts | 334° |
| 2026-05-08 20:26 | 35.68080 | 37.48460 | 21204 ft | 391 kts | 333° |
| 2026-05-08 20:26 | 35.70541 | 37.47108 | 20568 ft | 391 kts | 334° |
| 2026-05-08 20:26 | 35.73034 | 37.45744 | 19925 ft | 391 kts | 334° |
| 2026-05-08 20:27 | 35.75527 | 37.44381 | 19289 ft | 392 kts | 333° |
| 2026-05-08 20:27 | 35.78030 | 37.43009 | 18632 ft | 393 kts | 333° |
| 2026-05-08 20:27 | 35.80531 | 37.41634 | 17930 ft | 393 kts | 333° |
| 2026-05-08 20:27 | 35.83005 | 37.40271 | 17283 ft | 392 kts | 333° |
| 2026-05-08 20:28 | 35.85502 | 37.38894 | 16665 ft | 390 kts | 333° |
| 2026-05-08 20:28 | 35.87977 | 37.37526 | 16038 ft | 389 kts | 333° |
| 2026-05-08 20:28 | 35.90417 | 37.36157 | 15549 ft | 381 kts | 333° |
| 2026-05-08 20:28 | 35.92774 | 37.34814 | 14554 ft | 375 kts | 332° |
| 2026-05-08 20:29 | 35.95134 | 37.33459 | 13473 ft | 371 kts | 332° |
| 2026-05-08 20:29 | 35.97470 | 37.32136 | 12354 ft | 366 kts | 333° |
| 2026-05-08 20:29 | 35.99775 | 37.30869 | 11594 ft | 354 kts | 333° |
| 2026-05-08 20:29 | 36.01943 | 37.29702 | 11457 ft | 326 kts | 334° |
| 2026-05-08 20:30 | 36.03949 | 37.28629 | 11239 ft | 304 kts | 333° |
| 2026-05-08 20:30 | 36.05862 | 37.27598 | 10724 ft | 296 kts | 333° |
| 2026-05-08 20:30 | 36.07736 | 37.26577 | 10120 ft | 292 kts | 333° |
| 2026-05-08 20:30 | 36.09564 | 37.25579 | 9950 ft | 290 kts | 333° |
| 2026-05-08 20:31 | 36.11431 | 37.24557 | 9339 ft | 297 kts | 333° |
| 2026-05-08 20:31 | 36.13295 | 37.23532 | 8853 ft | 288 kts | 334° |
| 2026-05-08 20:31 | 36.15213 | 37.22889 | 8160 ft | 287 kts | 358° |
| 2026-05-08 20:31 | 36.17142 | 37.23385 | 7495 ft | 284 kts | 27° |
| 2026-05-08 20:32 | 36.18637 | 37.24920 | 6849 ft | 280 kts | 55° |
| 2026-05-08 20:32 | 36.19425 | 37.27097 | 6192 ft | 276 kts | 73° |
| 2026-05-08 20:32 | 36.19961 | 37.29376 | 5500 ft | 274 kts | 74° |
| 2026-05-08 20:32 | 36.20478 | 37.31608 | 4791 ft | 272 kts | 74° |
| 2026-05-08 20:33 | 36.20998 | 37.33864 | 4070 ft | 271 kts | 74° |
| 2026-05-08 20:33 | 36.21521 | 37.36130 | 3470 ft | 275 kts | 73° |
| 2026-05-08 20:33 | 36.22039 | 37.38364 | 3289 ft | 262 kts | 74° |
| 2026-05-08 20:33 | 36.22135 | 37.40479 | 3217 ft | 236 kts | 107° |
| 2026-05-08 20:34 | 36.21289 | 37.42081 | 3141 ft | 216 kts | 141° |
| 2026-05-08 20:34 | 36.20018 | 37.42866 | 3072 ft | 196 kts | 168° |
| 2026-05-08 20:34 | 36.17655 | 37.42329 | 2987 ft | 163 kts | 216° |
| 2026-05-08 20:35 | 36.16884 | 37.41365 | 2991 ft | 156 kts | 239° |
| 2026-05-08 20:35 | 36.16485 | 37.40146 | 2997 ft | 152 kts | 262° |
| 2026-05-08 20:35 | 36.16494 | 37.38877 | 3024 ft | 148 kts | 278° |
| 2026-05-08 20:35 | 36.16617 | 37.37603 | 3017 ft | 149 kts | 278° |
| 2026-05-08 20:36 | 36.16739 | 37.36326 | 3013 ft | 148 kts | 278° |
| 2026-05-08 20:36 | 36.16862 | 37.35051 | 2965 ft | 149 kts | 278° |
| 2026-05-08 20:36 | 36.16984 | 37.33780 | 2829 ft | 148 kts | 278° |
| 2026-05-08 20:36 | 36.17104 | 37.32533 | 2661 ft | 147 kts | 278° |
| 2026-05-08 20:37 | 36.17225 | 37.31277 | 2477 ft | 147 kts | 278° |
| 2026-05-08 20:37 | 36.17345 | 37.30026 | 2286 ft | 146 kts | 278° |
| 2026-05-08 20:37 | 36.17464 | 37.28785 | 2092 ft | 144 kts | 278° |
| 2026-05-08 20:37 | 36.17583 | 37.27558 | 1898 ft | 143 kts | 278° |
| 2026-05-08 20:38 | 36.17702 | 37.26342 | 1702 ft | 141 kts | 278° |
| 2026-05-08 20:38 | 36.17819 | 37.25136 | 1474 ft | 140 kts | 278° |
| 2026-05-08 20:38 | 36.17925 | 37.23941 | 1294 ft | 139 kts | 277° |
| 2026-05-08 20:38 | 36.18028 | 37.22875 | 1263 ft | 102 kts | 276° |
| 2026-05-08 20:39 | 36.18092 | 37.22216 | 1267 ft | 52 kts | 277° |
| 2026-05-08 20:39 | 36.18117 | 37.21910 | 1268 ft | 31 kts | 275° |
| 2026-05-08 20:39 | 36.18177 | 37.21662 | 1268 ft | 30 kts | 300° |
| 2026-05-08 20:39 | 36.18287 | 37.21549 | 1269 ft | 17 kts | 28° |
| 2026-05-08 20:40 | 36.18294 | 37.21667 | 1271 ft | 13 kts | 94° |
| 2026-05-08 20:40 | 36.18285 | 37.21765 | 1268 ft | 10 kts | 97° |
| 2026-05-08 20:40 | 36.18276 | 37.21856 | 1268 ft | 13 kts | 98° |
| 2026-05-08 20:40 | 36.18249 | 37.22000 | 1274 ft | 22 kts | 108° |
| 2026-05-08 20:41 | 36.18238 | 37.22214 | 1271 ft | 28 kts | 94° |
| 2026-05-08 20:41 | 36.18216 | 37.22468 | 1265 ft | 29 kts | 98° |
| 2026-05-08 20:41 | 36.18202 | 37.22650 | 1263 ft | 14 kts | 84° |
| 2026-05-08 20:41 | 36.18247 | 37.22704 | 1264 ft | 11 kts | 9° |
| 2026-05-08 20:42 | 36.18294 | 37.22722 | 1265 ft | 7 kts | 45° |
| 2026-05-08 20:42 | 36.18313 | 37.22752 | 1269 ft | 4 kts | 53° |
| 2026-05-08 20:42 | 36.18330 | 37.22760 | 1265 ft | 3 kts | 338° |
| 2026-05-08 20:42 | 36.18362 | 37.22756 | 1265 ft | 5 kts | 6° |
| 2026-05-08 20:43 | 36.18385 | 37.22759 | 1265 ft | 2 kts | 6° |
| 2026-05-08 20:43 | 36.18394 | 37.22760 | 1274 ft | 0 kts | 6° |